METAR Reports From Nearby Airports

 

KLUD - Decatur, Texas, USA
Distance from Wildwood: OZO 5mi, 8km
Updated: Jul 12, 2020 11:35pm
Helder
Helder
 Wind van O
Wind: O 5 mph , 7 km/h
Temperatuur: 82°F , 28°C
Heat Index: 86°F , 30°C
Dauwpunt: 72°F , 22°C
Vochtigheid: 70%
Barometer: 29.90 inHg , 1012.5 hPa
Clouds: Helder
Visibility: 10 miles , 16 km
2020/07/13 04:35 KLUD 130435Z AUTO 09004KT 10SM CLR 28/22 A2990 RMK AO2 T02800223
KXBP - Bridgeport, Texas, USA
Distance from Wildwood: WZW 11mi, 18km
Updated: Jul 12, 2020 11:35pm
Helder
Helder
 Wind van O
Wind: O 3 mph , 6 km/h
Temperatuur: 82°F , 28°C
Heat Index: 86°F , 30°C
Dauwpunt: 72°F , 22°C
Vochtigheid: 70%
Barometer: 29.89 inHg , 1012.2 hPa
Clouds: Helder
Visibility: 10 miles , 16 km
2020/07/13 04:35 KXBP 130435Z AUTO 10003KT 10SM CLR 28/22 A2989 RMK AO2 T02770217
 
K0F2 - Bowie, Texas, USA
Distance from Wildwood: NNW 24mi, 39km
Updated: Jul 12, 2020 11:35pm
Helder
Helder
 Wind van OZO
Wind: OZO 5 mph , 7 km/h
Temperatuur: 84°F , 29°C
Heat Index: 92°F , 33°C
Dauwpunt: 75°F , 24°C
Vochtigheid: 74%
Barometer: 29.89 inHg , 1012.2 hPa
Clouds: Helder
Visibility: 10 miles , 16 km
2020/07/13 04:35 K0F2 130435Z AUTO 12004KT 10SM CLR 29/24 A2989 RMK AO2 T02920237
KDTO - Denton, Texas, USA
Distance from Wildwood: O 27mi, 44km
Updated: Jul 12, 2020 10:53pm
Helder
Helder
 Wind van OZO
Wind: OZO 3 mph , 6 km/h
Temperatuur: 90°F , 32°C
Heat Index: 97°F , 36°C
Dauwpunt: 72°F , 22°C
Vochtigheid: 55%
Barometer: 29.88 inHg , 1011.9 hPa
Clouds: Helder
Visibility: 10 miles , 16 km
2020/07/13 03:53 KDTO 130353Z AUTO 11003KT 10SM CLR 32/22 A2988 RMK AO2 SLP106 T03170222
 
KAFW - Ft Worth/Allianc, Texas, USA
Distance from Wildwood: ZO 29mi, 46km
Updated: Jul 12, 2020 10:53pm
Few Clouds
Few Clouds
 Wind van OZO
Wind: OZO 7 mph , 11 km/h
Temperatuur: 90°F , 32°C
Heat Index: 99°F , 37°C
Dauwpunt: 73°F , 23°C
Vochtigheid: 59%
Barometer: 29.87 inHg , 1011.5 hPa
Clouds: Few Clouds
Visibility: 10 miles , 16 km
Cloud details: Few Clouds 25000 ft
2020/07/13 03:53 KAFW 130353Z 12006KT 10SM FEW250 32/23 A2987 RMK AO2 SLP096 T03170228
KFTW - Fort Worth, Texas, USA
Distance from Wildwood: ZZO 34mi, 55km
Updated: Jul 12, 2020 10:53pm
Helder
Helder
 Wind van OZO
Wind: OZO 9 mph , 15 km/h
Temperatuur: 90°F , 32°C
Heat Index: 99°F , 37°C
Dauwpunt: 73°F , 23°C
Vochtigheid: 59%
Barometer: 29.86 inHg , 1011.2 hPa
Clouds: Helder
Visibility: 10 miles , 16 km
2020/07/13 03:53 KFTW 130353Z 11008KT 10SM CLR 32/23 A2986 RMK AO2 SLP100 T03170233
 
KNFW - Fort Worth Nas, Texas, USA
Distance from Wildwood: ZZO 36mi, 58km
Updated: Jul 12, 2020 10:52pm
Helder
Helder
 Wind van ZO
Wind: ZO 8 mph , 13 km/h
Temperatuur: 91°F , 33°C
Heat Index: 98°F , 37°C
Dauwpunt: 72°F , 22°C
Vochtigheid: 52%
Barometer: 29.87 inHg , 1011.5 hPa
Clouds: Helder
Visibility: 10 miles , 16 km
2020/07/13 03:52 KNFW 130352Z AUTO 13007KT 10SM CLR 33/22 A2987 RMK AO2 SLP098 T03330222 VISNO N $
KGLE - Gainesville, Texas, USA
Distance from Wildwood: NO 38mi, 61km
Updated: Jul 12, 2020 11:35pm
Helder
Helder
 Wind van OZO
Wind: OZO 6 mph , 9 km/h
Temperatuur: 82°F , 28°C
Heat Index: 86°F , 30°C
Dauwpunt: 72°F , 22°C
Vochtigheid: 70%
Barometer: 29.91 inHg , 1012.9 hPa
Clouds: Helder
Visibility: 10 miles , 16 km
2020/07/13 04:35 KGLE 130435Z AUTO 11005KT 10SM CLR 28/22 A2991 RMK AO2 T02750220 PWINO
 
KMWL - Mineral Wells, Texas, USA
Distance from Wildwood: ZW 41mi, 65km
Updated: Jul 12, 2020 10:53pm
Helder
Helder
 Wind van ZO
Wind: ZO 8 mph , 13 km/h
Temperatuur: 86°F , 30°C
Heat Index: 92°F , 33°C
Dauwpunt: 72°F , 22°C
Vochtigheid: 62%
Barometer: 29.86 inHg , 1011.2 hPa
Clouds: Helder
Visibility: 10 miles , 16 km
2020/07/13 03:53 KMWL 130353Z AUTO 13007KT 10SM CLR 30/22 A2986 RMK AO2 SLP095 T03000217 $
KDFW - Dallas/Ft Worth, Texas, USA
Distance from Wildwood: OZO 45mi, 73km
Updated: Jul 12, 2020 10:53pm
Few Clouds
Few Clouds
 Wind van OZO
Wind: OZO 8 mph , 13 km/h
Temperatuur: 88°F , 31°C
Heat Index: 98°F , 37°C
Dauwpunt: 75°F , 24°C
Vochtigheid: 66%
Barometer: 29.86 inHg , 1011.2 hPa
Clouds: Few Clouds
Visibility: 10 miles , 16 km
Cloud details: Few Clouds 30000 ft
2020/07/13 03:53 KDFW 130353Z 11007KT 10SM FEW300 31/24 A2986 RMK AO2 SLP101 T03110244